createdAt,value
2017-06-28T00:00:12.459Z,22.50
2017-06-28T00:02:40.007Z,22.50
2017-06-28T00:05:07.649Z,22.67
2017-06-28T00:07:35.369Z,20.15
2017-06-28T00:10:02.885Z,18.62
2017-06-28T00:12:30.869Z,18.15
2017-06-28T00:14:58.543Z,19.67
2017-06-28T00:17:26.481Z,18.77
2017-06-28T00:19:54.161Z,20.77
2017-06-28T00:22:21.707Z,20.48
2017-06-28T00:24:49.246Z,25.60
2017-06-28T00:27:17.086Z,24.70
2017-06-28T00:29:44.646Z,27.02
2017-06-28T00:32:12.293Z,21.52
2017-06-28T00:34:39.808Z,20.50
2017-06-28T00:37:07.644Z,19.35
2017-06-28T00:39:35.226Z,22.50
2017-06-28T00:42:02.788Z,19.35
2017-06-28T00:44:30.357Z,19.45
2017-06-28T00:46:58.667Z,28.38
2017-06-28T00:49:26.457Z,18.00
2017-06-28T00:51:54.010Z,21.87
2017-06-28T00:54:22.026Z,19.25
2017-06-28T00:56:49.541Z,19.67
2017-06-28T00:59:17.405Z,17.90
2017-06-28T01:01:45.324Z,24.30
2017-06-28T01:04:12.901Z,20.83
2017-06-28T01:06:40.561Z,17.95
2017-06-28T01:09:08.210Z,17.60
2017-06-28T01:11:35.994Z,19.80
2017-06-28T01:14:03.537Z,19.50
2017-06-28T01:16:31.069Z,22.17
2017-06-28T01:18:59.355Z,20.12
2017-06-28T01:21:27.168Z,22.75
2017-06-28T01:23:54.744Z,26.58
2017-06-28T01:26:22.264Z,22.02
2017-06-28T01:28:49.865Z,22.33
2017-06-28T01:31:17.373Z,20.33
2017-06-28T01:33:46.485Z,18.85
2017-06-28T01:36:13.996Z,18.48
2017-06-28T01:38:41.562Z,30.12
2017-06-28T01:41:09.165Z,25.70
2017-06-28T01:43:37.071Z,19.58
2017-06-28T01:46:05.377Z,26.75
2017-06-28T01:48:33.281Z,20.33
2017-06-28T01:51:00.853Z,21.40
2017-06-28T01:53:28.735Z,23.98
2017-06-28T01:55:56.297Z,19.65
2017-06-28T01:58:24.669Z,22.42
2017-06-28T02:00:52.985Z,21.70
2017-06-28T02:03:20.534Z,19.20
2017-06-28T02:05:48.129Z,23.95
2017-06-28T02:08:15.717Z,20.40
2017-06-28T02:10:44.010Z,20.92
2017-06-28T02:13:12.426Z,23.80
2017-06-28T02:15:40.004Z,26.30
2017-06-28T02:18:07.525Z,25.98
2017-06-28T02:20:35.114Z,23.05
2017-06-28T02:23:02.713Z,23.08
2017-06-28T02:25:30.517Z,24.37
2017-06-28T02:27:58.066Z,25.10
2017-06-28T02:30:25.605Z,24.98
2017-06-28T02:32:53.146Z,23.98
2017-06-28T02:35:20.657Z,20.88
2017-06-28T02:37:48.283Z,20.75
2017-06-28T02:40:15.841Z,22.70
2017-06-28T02:42:43.422Z,27.45
2017-06-28T02:45:11.286Z,30.02
2017-06-28T02:47:38.826Z,23.33
2017-06-28T02:50:06.378Z,21.10
2017-06-28T02:52:34.263Z,22.98
2017-06-28T02:55:01.810Z,27.40
2017-06-28T02:57:29.577Z,25.83
2017-06-28T02:59:57.124Z,20.25
2017-06-28T03:02:24.706Z,25.52
2017-06-28T03:04:52.311Z,21.50
2017-06-28T03:07:27.902Z,20.85
2017-06-28T03:09:55.464Z,18.00
2017-06-28T03:12:23.379Z,18.95
2017-06-28T03:14:50.944Z,22.98
2017-06-28T03:17:18.493Z,22.08
2017-06-28T03:19:46.784Z,27.00
2017-06-28T03:22:14.414Z,29.33
2017-06-28T03:24:42.964Z,27.37
2017-06-28T03:27:10.880Z,32.15
2017-06-28T03:29:38.409Z,34.45
2017-06-28T03:32:05.921Z,29.37
2017-06-28T03:34:33.581Z,21.10
2017-06-28T03:37:01.146Z,22.02
2017-06-28T03:39:28.895Z,23.67
2017-06-28T03:41:56.433Z,25.35
2017-06-28T03:44:24.021Z,33.47
2017-06-28T03:46:51.587Z,32.83
2017-06-28T03:49:19.903Z,34.97
2017-06-28T03:51:48.835Z,36.15
2017-06-28T03:54:17.720Z,32.40
2017-06-28T03:56:46.661Z,21.25
2017-06-28T03:59:15.524Z,21.50
2017-06-28T04:01:44.408Z,21.10
2017-06-28T04:04:13.429Z,29.55
2017-06-28T04:06:42.601Z,27.30
2017-06-28T04:09:11.504Z,26.83
2017-06-28T04:11:40.413Z,27.25
2017-06-28T04:14:09.358Z,27.52
2017-06-28T04:16:38.240Z,24.52
2017-06-28T04:19:07.177Z,27.58
2017-06-28T04:21:36.098Z,27.10
2017-06-28T04:24:03.629Z,27.60
2017-06-28T04:26:32.796Z,26.67
2017-06-28T04:29:00.531Z,32.67
2017-06-28T04:31:28.093Z,26.58
2017-06-28T04:33:55.617Z,27.40
2017-06-28T04:36:23.506Z,32.28
2017-06-28T04:38:51.074Z,26.80
2017-06-28T04:41:18.664Z,28.00
2017-06-28T04:43:46.558Z,28.15
2017-06-28T04:46:14.420Z,28.50
2017-06-28T04:48:42.740Z,26.90
2017-06-28T04:51:10.277Z,25.17
2017-06-28T04:53:37.832Z,28.90
2017-06-28T04:56:05.401Z,28.75
2017-06-28T04:58:33.072Z,28.38
2017-06-28T05:01:00.938Z,23.92
2017-06-28T05:03:28.801Z,23.02
2017-06-28T05:05:56.330Z,23.25
2017-06-28T05:08:23.854Z,25.17
2017-06-28T05:10:53.422Z,23.95
2017-06-28T05:13:20.929Z,28.10
2017-06-28T05:15:49.297Z,25.95
2017-06-28T05:18:17.119Z,24.70
2017-06-28T05:20:44.717Z,25.70
2017-06-28T05:23:13.062Z,23.15
2017-06-28T05:25:40.639Z,22.98
2017-06-28T05:28:08.470Z,23.77
2017-06-28T05:30:36.034Z,20.45
2017-06-28T05:33:03.578Z,19.90
2017-06-28T05:35:31.140Z,20.00
2017-06-28T05:37:59.009Z,18.07
2017-06-28T05:40:26.536Z,17.33
2017-06-28T05:42:54.079Z,15.53
2017-06-28T05:45:21.885Z,16.13
2017-06-28T05:47:49.481Z,16.53
2017-06-28T05:50:17.027Z,16.43
2017-06-28T05:52:45.631Z,14.90
2017-06-28T05:55:13.972Z,13.13
2017-06-28T05:57:41.512Z,14.50
2017-06-28T06:00:09.114Z,12.47
2017-06-28T06:02:37.401Z,12.33
2017-06-28T06:05:04.964Z,12.60
2017-06-28T06:07:32.485Z,11.90
2017-06-28T06:10:00.132Z,10.47
2017-06-28T06:12:27.668Z,10.27
2017-06-28T06:14:55.189Z,11.93
2017-06-28T06:17:23.552Z,9.73
2017-06-28T06:19:51.120Z,10.20
2017-06-28T06:22:18.757Z,9.37
2017-06-28T06:24:46.341Z,8.93
2017-06-28T06:27:13.873Z,9.00
2017-06-28T06:29:41.375Z,9.53
2017-06-28T06:32:08.890Z,9.13
2017-06-28T06:34:36.413Z,8.10
2017-06-28T06:37:03.938Z,8.60
2017-06-28T06:39:31.469Z,9.33
2017-06-28T06:41:59.752Z,8.03
2017-06-28T06:44:27.381Z,7.60
2017-06-28T06:46:55.066Z,8.30
2017-06-28T06:49:23.351Z,8.23
2017-06-28T06:51:50.907Z,7.30
2017-06-28T06:54:19.200Z,9.57
2017-06-28T06:56:46.720Z,9.40
2017-06-28T06:59:14.549Z,8.60
2017-06-28T07:01:42.069Z,8.37
2017-06-28T07:04:09.660Z,11.67
2017-06-28T07:06:37.209Z,8.67
2017-06-28T07:09:04.911Z,7.50
2017-06-28T07:11:32.416Z,7.63
2017-06-28T07:13:59.960Z,8.00
2017-06-28T07:16:27.491Z,8.43
2017-06-28T07:18:55.795Z,9.77
2017-06-28T07:21:23.342Z,9.67
2017-06-28T07:23:50.847Z,9.20
2017-06-28T07:26:18.364Z,8.90
2017-06-28T07:28:45.930Z,7.90
2017-06-28T07:31:13.656Z,8.50
2017-06-28T07:33:41.932Z,9.53
2017-06-28T07:36:10.278Z,9.13
2017-06-28T07:38:37.865Z,11.57
2017-06-28T07:41:06.161Z,9.43
2017-06-28T07:43:33.697Z,10.40
2017-06-28T07:46:01.278Z,8.97
2017-06-28T07:48:28.817Z,7.53
2017-06-28T07:50:57.139Z,8.03
2017-06-28T07:53:26.028Z,6.57
2017-06-28T07:55:53.575Z,7.27
2017-06-28T07:58:21.112Z,7.20
2017-06-28T08:00:48.825Z,6.10
2017-06-28T08:03:16.436Z,6.93
2017-06-28T08:05:44.445Z,6.87
2017-06-28T08:08:12.009Z,6.97
2017-06-28T08:10:39.702Z,8.20
2017-06-28T08:13:08.303Z,5.97
2017-06-28T08:15:36.183Z,5.80
2017-06-28T08:18:03.727Z,7.60
2017-06-28T08:20:31.263Z,5.13
2017-06-28T08:22:58.858Z,5.47
2017-06-28T08:25:26.562Z,5.40
2017-06-28T08:27:54.481Z,6.10
2017-06-28T08:30:22.217Z,5.50
2017-06-28T08:32:49.922Z,8.00
2017-06-28T08:35:17.665Z,4.73
2017-06-28T08:37:45.286Z,5.43
2017-06-28T08:40:13.777Z,5.00
2017-06-28T08:42:42.065Z,17.03
2017-06-28T08:45:09.669Z,7.67
2017-06-28T08:47:37.222Z,5.97
2017-06-28T08:50:04.729Z,5.43
2017-06-28T08:52:32.528Z,5.10
2017-06-28T08:55:00.190Z,5.17
2017-06-28T08:57:27.741Z,5.90
2017-06-28T08:59:55.628Z,4.70
2017-06-28T09:02:23.288Z,5.13
2017-06-28T09:04:51.081Z,9.50
2017-06-28T09:07:19.734Z,6.63
2017-06-28T09:09:47.286Z,8.63
2017-06-28T09:12:14.924Z,8.10
2017-06-28T09:14:42.507Z,7.53
2017-06-28T09:17:10.096Z,8.17
2017-06-28T09:19:38.366Z,9.30
2017-06-28T09:22:05.897Z,7.87
2017-06-28T09:24:34.089Z,7.60
2017-06-28T09:27:01.628Z,8.70
2017-06-28T09:29:29.229Z,10.50
2017-06-28T09:31:57.980Z,10.48
2017-06-28T09:34:25.572Z,11.10
2017-06-28T09:36:53.128Z,9.47
2017-06-28T09:39:20.668Z,9.37
2017-06-28T09:41:48.941Z,8.77
2017-06-28T09:44:16.508Z,11.10
2017-06-28T09:46:44.157Z,9.33
2017-06-28T09:49:12.417Z,8.90
2017-06-28T09:51:40.280Z,8.93
2017-06-28T09:54:07.818Z,8.33
2017-06-28T09:56:35.385Z,8.03
2017-06-28T09:59:02.998Z,8.70
2017-06-28T10:01:30.642Z,8.10
2017-06-28T10:03:59.005Z,8.80
2017-06-28T10:06:27.445Z,9.20
2017-06-28T10:08:54.961Z,9.17
2017-06-28T10:11:22.615Z,8.33
2017-06-28T10:13:50.113Z,8.77
2017-06-28T10:16:17.677Z,8.77
2017-06-28T10:18:45.307Z,8.60
2017-06-28T10:21:14.134Z,8.53
2017-06-28T10:23:41.685Z,8.50
2017-06-28T10:26:09.202Z,10.20
2017-06-28T10:28:36.780Z,9.70
2017-06-28T10:31:04.328Z,7.97
2017-06-28T10:33:31.976Z,7.70
2017-06-28T10:35:59.531Z,7.57
2017-06-28T10:38:27.162Z,6.62
2017-06-28T10:40:54.890Z,7.70
2017-06-28T10:43:22.730Z,7.10
2017-06-28T10:45:50.265Z,6.40
2017-06-28T10:48:18.189Z,6.03
2017-06-28T10:50:45.722Z,6.63
2017-06-28T10:53:13.625Z,7.50
2017-06-28T10:55:41.457Z,6.30
2017-06-28T10:58:09.129Z,6.57
2017-06-28T11:00:36.881Z,6.33
2017-06-28T11:03:04.645Z,6.43
2017-06-28T11:05:32.225Z,7.70
2017-06-28T11:07:59.750Z,6.80
2017-06-28T11:10:27.516Z,7.23
2017-06-28T11:12:55.236Z,6.83
2017-06-28T11:15:23.468Z,12.30
2017-06-28T11:17:51.317Z,6.93
2017-06-28T11:20:19.912Z,7.37
2017-06-28T11:22:47.412Z,7.70
2017-06-28T11:25:15.805Z,8.13
2017-06-28T11:27:43.358Z,7.43
2017-06-28T11:30:11.029Z,7.13
2017-06-28T11:32:38.537Z,7.20
2017-06-28T11:35:06.278Z,7.97
2017-06-28T11:37:34.058Z,6.90
2017-06-28T11:40:01.605Z,7.13
2017-06-28T11:42:29.262Z,7.50
2017-06-28T11:44:56.946Z,8.20
2017-06-28T11:47:25.457Z,8.37
2017-06-28T11:49:53.357Z,8.10
2017-06-28T11:52:21.177Z,10.13
2017-06-28T11:54:48.881Z,8.37
2017-06-28T11:57:16.763Z,9.63
2017-06-28T11:59:45.949Z,7.20
2017-06-28T12:02:14.342Z,8.63
2017-06-28T12:04:42.181Z,8.60
2017-06-28T12:07:09.706Z,9.50
2017-06-28T12:09:37.236Z,9.13
2017-06-28T12:12:05.778Z,8.90
2017-06-28T12:14:34.461Z,8.63
2017-06-28T12:17:02.101Z,9.70
2017-06-28T12:19:30.195Z,11.67
2017-06-28T12:21:58.193Z,8.37
2017-06-28T12:24:25.946Z,9.53
2017-06-28T12:26:53.655Z,10.40
2017-06-28T12:29:21.261Z,8.43
2017-06-28T12:31:49.026Z,9.77
2017-06-28T12:34:16.724Z,14.00
2017-06-28T12:36:44.385Z,10.27
2017-06-28T12:39:13.760Z,8.90
2017-06-28T12:41:42.648Z,22.17
2017-06-28T12:44:11.576Z,26.53
2017-06-28T12:46:39.190Z,20.62
2017-06-28T12:49:07.049Z,14.32
2017-06-28T12:51:34.641Z,13.20
2017-06-28T12:54:02.217Z,15.63
2017-06-28T12:56:30.513Z,17.73
2017-06-28T12:58:58.026Z,17.20
2017-06-28T13:01:26.708Z,19.75
2017-06-28T13:03:54.326Z,11.05
2017-06-28T13:06:21.881Z,11.50
2017-06-28T13:08:49.734Z,11.60
2017-06-28T13:11:17.256Z,12.40
2017-06-28T13:13:44.866Z,10.02
2017-06-28T13:16:12.439Z,11.63
2017-06-28T13:18:40.043Z,9.38
2017-06-28T13:21:07.554Z,8.98
2017-06-28T13:23:35.421Z,9.60
2017-06-28T13:26:03.068Z,10.55
2017-06-28T13:28:30.624Z,8.60
2017-06-28T13:30:58.194Z,7.83
2017-06-28T13:33:25.697Z,7.53
2017-06-28T13:35:53.311Z,7.82
2017-06-28T13:38:20.855Z,9.50
2017-06-28T13:40:48.420Z,10.00
2017-06-28T13:43:16.029Z,10.15
2017-06-28T13:45:43.541Z,10.20
2017-06-28T13:48:11.326Z,10.27
2017-06-28T13:50:39.609Z,9.90
2017-06-28T13:53:07.191Z,7.90
2017-06-28T13:55:34.743Z,7.78
2017-06-28T13:58:02.277Z,9.45
2017-06-28T14:00:29.821Z,8.43
2017-06-28T14:02:58.091Z,8.45
2017-06-28T14:05:27.544Z,10.18
2017-06-28T14:07:55.569Z,9.52
2017-06-28T14:10:24.201Z,8.40
2017-06-28T14:12:51.722Z,7.45
2017-06-28T14:15:19.287Z,8.90
2017-06-28T14:17:46.785Z,7.75
2017-06-28T14:20:14.310Z,8.02
2017-06-28T14:22:41.809Z,8.55
2017-06-28T14:25:09.315Z,9.90
2017-06-28T14:27:36.887Z,8.73
2017-06-28T14:30:05.302Z,7.37
2017-06-28T14:32:33.176Z,8.25
2017-06-28T14:35:00.717Z,8.63
2017-06-28T14:37:28.584Z,8.60
2017-06-28T14:39:56.097Z,7.93
2017-06-28T14:42:23.701Z,7.70
2017-06-28T14:44:51.259Z,7.72
2017-06-28T14:47:18.780Z,8.65
2017-06-28T14:49:46.549Z,7.93
2017-06-28T14:52:14.314Z,10.85
2017-06-28T14:54:42.178Z,9.00
2017-06-28T14:57:10.041Z,9.57
2017-06-28T14:59:37.632Z,9.10
2017-06-28T15:02:05.188Z,8.90
2017-06-28T15:04:32.724Z,9.25
2017-06-28T15:07:00.481Z,10.88
2017-06-28T15:09:27.991Z,10.40
2017-06-28T15:11:55.553Z,11.80
2017-06-28T15:14:23.061Z,14.18
2017-06-28T15:16:50.591Z,12.95
2017-06-28T15:19:18.126Z,11.20
2017-06-28T15:21:45.924Z,11.90
2017-06-28T15:24:13.446Z,11.70
2017-06-28T15:26:41.001Z,12.32
2017-06-28T15:29:08.519Z,11.77
2017-06-28T15:31:36.025Z,12.00
2017-06-28T15:34:03.587Z,13.93
2017-06-28T15:36:32.497Z,14.93
2017-06-28T15:39:01.417Z,14.07
2017-06-28T15:41:30.313Z,13.90
2017-06-28T15:43:59.224Z,14.95
2017-06-28T15:46:28.368Z,13.23
2017-06-28T15:48:57.283Z,13.05
2017-06-28T15:51:26.180Z,11.10
2017-06-28T15:54:00.952Z,12.60
2017-06-28T15:56:30.596Z,12.73
2017-06-28T15:58:59.453Z,13.52
2017-06-28T16:01:28.358Z,12.48
2017-06-28T16:03:57.216Z,12.37
2017-06-28T16:06:26.095Z,13.07
2017-06-28T16:08:55.026Z,12.37
2017-06-28T16:11:23.955Z,12.20
2017-06-28T16:13:53.108Z,10.95
2017-06-28T16:16:22.060Z,10.00
2017-06-28T16:18:50.669Z,9.40
2017-06-28T16:21:19.565Z,10.75
2017-06-28T16:23:48.772Z,10.52
2017-06-28T16:26:17.654Z,9.77
2017-06-28T16:28:46.581Z,9.55
2017-06-28T16:31:15.522Z,10.38
2017-06-28T16:33:44.485Z,9.30
2017-06-28T16:36:13.352Z,7.95
2017-06-28T16:38:42.329Z,7.30
2017-06-28T16:41:11.237Z,9.40
2017-06-28T16:43:40.169Z,9.73
2017-06-28T16:46:09.137Z,10.90
2017-06-28T16:48:41.630Z,10.60
2017-06-28T16:51:10.864Z,9.77
2017-06-28T16:53:39.817Z,9.75
2017-06-28T16:56:08.840Z,9.25
2017-06-28T16:58:37.873Z,9.63
2017-06-28T17:01:06.745Z,10.52
2017-06-28T17:03:35.961Z,11.15
2017-06-28T17:06:05.071Z,10.45
2017-06-28T17:08:34.171Z,10.68
2017-06-28T17:11:03.181Z,10.80
2017-06-28T17:13:32.159Z,12.10
2017-06-28T17:16:01.131Z,10.20
2017-06-28T17:18:30.023Z,10.13
2017-06-28T17:20:59.041Z,8.35
2017-06-28T17:23:27.533Z,9.07
2017-06-28T17:25:56.708Z,8.32
2017-06-28T17:28:25.630Z,8.27
2017-06-28T17:30:54.626Z,9.50
2017-06-28T17:33:23.830Z,9.73
2017-06-28T17:35:53.225Z,10.10
2017-06-28T17:38:22.210Z,9.93
2017-06-28T17:40:52.622Z,8.80
2017-06-28T17:43:22.329Z,10.20
2017-06-28T17:45:51.297Z,10.77
2017-06-28T17:48:20.512Z,9.52
2017-06-28T17:50:49.657Z,11.15
2017-06-28T17:53:18.829Z,16.02
2017-06-28T17:55:47.786Z,10.32
2017-06-28T17:58:16.668Z,8.90
2017-06-28T18:00:45.800Z,8.20
2017-06-28T18:03:14.960Z,7.50
2017-06-28T18:05:44.131Z,8.55
2017-06-28T18:08:13.148Z,8.20
2017-06-28T18:10:42.134Z,8.00
2017-06-28T18:13:11.131Z,7.70
2017-06-28T18:15:40.330Z,8.13
2017-06-28T18:18:09.897Z,8.23
2017-06-28T18:20:38.936Z,8.13
2017-06-28T18:23:07.808Z,8.77
2017-06-28T18:25:37.001Z,8.65
2017-06-28T18:28:06.259Z,8.75
2017-06-28T18:30:34.686Z,8.52
2017-06-28T18:33:03.405Z,8.00
2017-06-28T18:35:31.754Z,8.43
2017-06-28T18:38:02.065Z,8.68
2017-06-28T18:40:36.527Z,8.85
2017-06-28T18:43:05.675Z,8.40
2017-06-28T18:45:34.644Z,9.05
2017-06-28T18:48:03.390Z,8.68
2017-06-28T18:50:31.672Z,9.10
2017-06-28T18:52:59.487Z,8.43
2017-06-28T18:55:28.493Z,9.55
2017-06-28T18:57:56.322Z,8.95
2017-06-28T19:00:23.894Z,9.00
2017-06-28T19:02:51.537Z,9.85
2017-06-28T19:05:19.106Z,8.88
2017-06-28T19:07:46.684Z,9.25
2017-06-28T19:10:14.436Z,10.32
2017-06-28T19:12:42.017Z,11.85
2017-06-28T19:15:10.150Z,12.20
2017-06-28T19:17:38.321Z,12.73
2017-06-28T19:20:06.205Z,13.00
2017-06-28T19:22:34.271Z,18.00
2017-06-28T19:25:01.975Z,12.75
2017-06-28T19:27:29.640Z,12.90
2017-06-28T19:29:59.203Z,10.82
2017-06-28T19:32:27.070Z,13.15
2017-06-28T19:34:54.613Z,12.10
2017-06-28T19:37:22.178Z,11.55
2017-06-28T19:39:49.838Z,13.30
2017-06-28T19:42:17.485Z,12.90
2017-06-28T19:44:45.056Z,13.05
2017-06-28T19:47:12.909Z,12.75
2017-06-28T19:49:40.477Z,12.40
2017-06-28T19:52:08.065Z,14.20
2017-06-28T19:54:36.981Z,13.70
2017-06-28T19:57:06.092Z,13.45
2017-06-28T19:59:33.648Z,14.35
2017-06-28T20:02:01.194Z,12.82
2017-06-28T20:04:29.085Z,15.45
2017-06-28T20:06:56.603Z,13.95
2017-06-28T20:09:24.213Z,12.60
2017-06-28T20:11:52.129Z,14.13
2017-06-28T20:14:19.975Z,14.20
2017-06-28T20:16:48.246Z,13.77
2017-06-28T20:19:15.752Z,15.93
2017-06-28T20:21:43.337Z,15.93
2017-06-28T20:24:10.911Z,16.00
2017-06-28T20:26:38.513Z,17.40
2017-06-28T20:29:06.366Z,16.67
2017-06-28T20:31:34.468Z,15.93
2017-06-28T20:34:02.156Z,20.77
2017-06-28T20:36:30.534Z,14.60
2017-06-28T20:38:58.239Z,19.00
2017-06-28T20:41:25.828Z,18.10
2017-06-28T20:43:53.524Z,16.77
2017-06-28T20:46:21.030Z,18.48
2017-06-28T20:48:48.557Z,19.15
2017-06-28T20:51:17.284Z,16.48
2017-06-28T20:53:44.860Z,16.45
2017-06-28T20:56:12.405Z,16.40
2017-06-28T20:58:40.132Z,17.65
2017-06-28T21:01:07.665Z,17.77
2017-06-28T21:03:35.481Z,17.30
2017-06-28T21:06:03.037Z,16.55
2017-06-28T21:08:30.547Z,19.35
2017-06-28T21:10:58.906Z,16.05
2017-06-28T21:13:26.409Z,16.35
2017-06-28T21:15:54.265Z,16.30
2017-06-28T21:18:22.059Z,16.25
2017-06-28T21:20:49.570Z,17.33
2017-06-28T21:23:17.349Z,19.37
2017-06-28T21:25:44.959Z,18.20
2017-06-28T21:28:12.561Z,20.17
2017-06-28T21:30:40.157Z,18.62
2017-06-28T21:33:07.809Z,18.23
2017-06-28T21:35:35.321Z,18.65
2017-06-28T21:38:03.620Z,17.67
2017-06-28T21:40:31.156Z,16.12
2017-06-28T21:42:58.702Z,20.12
2017-06-28T21:45:27.033Z,17.15
2017-06-28T21:47:54.541Z,20.30
2017-06-28T21:50:22.842Z,19.58
2017-06-28T21:52:50.366Z,17.27
2017-06-28T21:55:18.640Z,18.75
2017-06-28T21:57:47.025Z,18.00
2017-06-28T22:00:14.682Z,18.30
2017-06-28T22:02:42.982Z,19.05
2017-06-28T22:05:10.824Z,18.60
2017-06-28T22:07:38.369Z,17.17
2017-06-28T22:10:06.676Z,18.10
2017-06-28T22:12:34.833Z,17.50
2017-06-28T22:15:02.518Z,19.48
2017-06-28T22:17:38.333Z,22.17
2017-06-28T22:20:06.632Z,22.42
2017-06-28T22:22:34.375Z,22.25
2017-06-28T22:25:02.193Z,18.55
2017-06-28T22:27:30.047Z,20.60
2017-06-28T22:29:57.589Z,22.62
2017-06-28T22:32:25.156Z,25.62
2017-06-28T22:34:52.833Z,21.12
2017-06-28T22:37:20.345Z,20.30
2017-06-28T22:39:47.855Z,20.45
2017-06-28T22:42:15.698Z,18.25
2017-06-28T22:44:43.458Z,18.80
2017-06-28T22:47:10.985Z,21.10
2017-06-28T22:49:38.502Z,21.67
2017-06-28T22:52:06.235Z,20.73
2017-06-28T22:54:33.897Z,20.95
2017-06-28T22:57:01.780Z,17.80
2017-06-28T22:59:29.641Z,19.52
2017-06-28T23:01:57.948Z,19.48
2017-06-28T23:04:26.332Z,19.42
2017-06-28T23:06:53.853Z,18.08
2017-06-28T23:09:21.622Z,18.33
2017-06-28T23:11:49.192Z,17.77
2017-06-28T23:14:16.756Z,20.50
2017-06-28T23:16:45.313Z,18.50
2017-06-28T23:19:13.155Z,20.70
2017-06-28T23:21:41.041Z,22.27
2017-06-28T23:24:08.622Z,23.55
2017-06-28T23:26:36.177Z,23.02
2017-06-28T23:29:04.457Z,19.52
2017-06-28T23:31:33.192Z,19.58
2017-06-28T23:34:00.746Z,20.05
2017-06-28T23:36:28.425Z,19.70
2017-06-28T23:38:55.930Z,18.62
2017-06-28T23:41:23.466Z,19.48
2017-06-28T23:43:50.973Z,19.08
2017-06-28T23:46:18.581Z,21.05
2017-06-28T23:48:46.960Z,21.83
2017-06-28T23:51:15.237Z,20.55
2017-06-28T23:53:43.875Z,22.08
2017-06-28T23:56:11.429Z,22.50
2017-06-28T23:58:39.294Z,23.85
